Weather observations for the past three days for
Sutton, Braxton County Airport
Imperial (Metric)
Date Time (edt) Wind (mph) Vis. (mi.) Weather Sky Cond. Temperature (ºF) Relative Humidity Wind Chill (°F) Heat Index (°F) Pressure Precipitation (in)
Air Dwpt 6 hour altimeter (in) sea level (mb) 1 hr 3 hr 6 hr
Max. Min.
09 11:35 Vrbl 6 10.00 Overcast FEW065 OVC130 61.5 44.4 54% 29.84 0.0
09 11:15 Vrbl 6 10.00 Overcast FEW065 BKN085 OVC130 61 43.9 54% 29.84 0.0
09 10:55 Vrbl 5 10.00 Overcast BKN060 BKN080 OVC130 62.1 44.6 53% 29.84 0.0
09 10:35 Vrbl 3 10.00 Overcast BKN065 OVC080 61 44.6 55% 29.85 0.0
09 10:15 Vrbl 3 10.00 Overcast BKN075 OVC130 61.3 43.3 52% 29.84 0.0
09 09:55 W 5 10.00 Overcast OVC075 63 46.8 56% 29.83 0.0
09 09:35 Calm 10.00 Mostly Cloudy BKN075 BKN150 61 45.9 58% 29.83 0.0
09 09:15 Calm 10.00 Mostly Cloudy BKN075 BKN150 59 46.9 64% 29.83 0.0
09 08:55 Calm 10.00 Overcast OVC075 57.7 46.2 66% 29.84 0.0
09 08:35 Calm 10.00 Overcast OVC075 57 46.6 68% 29.84 0.0
09 08:15 Calm 10.00 Mostly Cloudy BKN075 56.3 46.6 70% 29.84 0.0
09 07:55 Calm 10.00 Partly Cloudy FEW150 SCT170 53.8 45.3 53.8 50.5 73% 29.84 0.0
09 07:35 Calm 9.00 Partly Cloudy SCT140 52.3 47.5 84% 29.84 0.0
09 07:15 Calm 9.00 Fair CLR 52.2 45.3 78% 29.84 0.0
09 06:55 Calm 10.00 A Few Clouds FEW090 51.1 47.3 87% 29.84 0.0
09 06:35 Calm 10.00 A Few Clouds FEW090 51.4 46.6 84% 29.84 0.0
09 06:15 Calm 10.00 Partly Cloudy SCT090 50.7 47.3 88% 29.83 0.0
09 05:55 Calm 10.00 Overcast OVC090 51.3 46.8 85% 29.83 0.0
09 05:35 Calm 10.00 Overcast OVC090 50.9 47.8 89% 29.83 0.0
09 05:15 Calm 10.00 Overcast OVC090 51.6 47.5 86% 29.83 0.0
09 04:55 Calm 10.00 Overcast OVC090 52 47.7 85% 29.84 0.0
09 04:35 Calm 10.00 Overcast OVC090 52 47.8 86% 29.84 0.0
09 04:15 Calm 10.00 Overcast OVC090 52.2 47.8 85% 29.84 0.0
09 03:55 Calm 10.00 Overcast OVC090 52.3 45.5 78% 29.84 0.0
09 03:35 Calm 10.00 Overcast OVC090 52.2 46.2 80% 29.84 0.0
09 03:15 Calm 10.00 Overcast OVC090 52.3 47.7 84% 29.84 0.0
09 02:55 Calm 10.00 Overcast OVC090 52.5 47.3 83% 29.84 0.0
09 02:35 Calm 10.00 Overcast OVC090 52.5 47.3 83% 29.84 0.0
09 02:15 Calm 10.00 Overcast BKN090 OVC100 52.9 46.2 78% 29.85 0.0
09 01:55 Calm 10.00 Overcast OVC090 52.5 47.1 59.5 51.8 82% 29.85 0.0
09 01:35 Calm 10.00 Overcast OVC090 52.7 47.5 83% 29.86 0.0
09 01:15 Calm 10.00 Overcast OVC095 53.1 47.1 80% 29.85 0.0
09 00:55 Calm 10.00 Overcast OVC090 52.3 48.4 86% 29.86 0.0
09 00:35 Calm 10.00 Overcast BKN090 OVC110 52.9 47.8 83% 29.86 0.0
09 00:15 Calm 10.00 Overcast BKN095 BKN110 OVC140 53.4 48 82% 29.86 0.0
08 23:55 Calm 10.00 Mostly Cloudy BKN090 53.4 49.3 86% 29.87 0.0
08 23:35 Calm 10.00 Overcast BKN085 OVC100 53.2 49.5 87% 29.87 0.0
08 23:15 Calm 10.00 Overcast OVC100 53.8 47.8 80% 29.87 0.0
08 22:55 Calm 10.00 Overcast OVC110 53.1 47.8 83% 29.87 0.0
08 22:35 Calm 10.00 Overcast OVC110 52.7 46.8 80% 29.88 0.0
08 22:15 Calm 9.00 Overcast BKN110 BKN140 OVC170 51.8 46.4 82% 29.88 0.0
08 21:55 Calm 10.00 Overcast OVC140 54.3 46.9 76% 29.87 0.0
08 21:35 Calm 10.00 Overcast BKN120 BKN150 OVC180 55.2 45.5 70% 29.87 0.0
08 20:55 Calm 10.00 Mostly Cloudy BKN140 57 44.4 63% 29.87 0.0
08 20:35 Calm 10.00 Overcast BKN140 OVC180 56.8 44.2 63% 29.86 0.0
08 20:15 Calm 10.00 Mostly Cloudy FEW150 BKN180 58.6 41.4 53% 29.86 0.0
08 19:55 Calm 10.00 Fair CLR 64 36.9 68.5 63.7 37% 29.86 0.0
08 19:35 SW 7 10.00 Fair CLR 65.8 35.2 32% 29.87 0.0
08 19:15 Vrbl 5 10.00 Fair CLR 66.6 35.4 32% 29.86 0.0
08 18:55 Vrbl 6 10.00 Fair CLR 67.1 34.7 30% 29.86 0.0
08 18:35 W 9 10.00 A Few Clouds FEW110 67.6 34.3 29% 29.86 0.0
08 18:15 Vrbl 3 10.00 Partly Cloudy SCT110 67.6 36 31% 29.86 0.0
08 17:55 Vrbl 6 10.00 Fair CLR 68.4 36 30% 29.87 0.0
08 17:35 Vrbl 7 10.00 Fair CLR 68.4 36 30% 29.86 0.0
08 17:15 W 8 10.00 Fair CLR 68.5 36.7 31% 29.87 0.0
08 16:35 W 7 10.00 Partly Cloudy SCT070 67.3 36.1 32% 29.88 0.0
08 15:55 Vrbl 6 10.00 Mostly Cloudy BKN070 BKN085 64.6 36.1 35% 29.91 0.0
08 15:35 Vrbl 7 10.00 Partly Cloudy FEW070 SCT085 66.7 37.8 35% 29.91 0.0
08 15:15 Vrbl 6 10.00 Fair CLR 67.1 37.8 34% 29.92 0.0
08 14:55 W 7 G 20 10.00 A Few Clouds FEW070 66.6 38.3 35% 29.94 0.0
08 14:35 W 9 G 17 10.00 A Few Clouds FEW070 66.2 37.9 35% 29.95 0.0
08 14:15 Vrbl 7 10.00 Mostly Cloudy BKN065 64.2 37 37% 29.95 0.0
08 13:55 Vrbl 6 10.00 Mostly Cloudy BKN070 64.4 38.3 64.6 40.1 38% 29.96 0.0
08 13:35 Vrbl 7 10.00 Mostly Cloudy BKN065 63.5 36.9 37% 29.97 0.0
08 13:15 Vrbl 5 5.00 Mostly Cloudy with Haze BKN065 BKN085 63.3 36.9 38% 29.97 0.0
08 12:55 Vrbl 7 5.00 Mostly Cloudy with Haze FEW065 BKN090 63.5 36.3 37% 29.99 0.0
08 12:35 W 8 4.00 A Few Clouds with Haze FEW065 63.1 36.5 37% 30 0.0
08 12:15 Vrbl 3 4.00 Fair with Haze CLR 61.9 35.1 37% 30 0.0
08 11:55 W 12 G 17 4.00 A Few Clouds with Haze FEW350 61.9 35.8 38% 30 0.0
08 11:15 Vrbl 5 4.00 Fair with Haze CLR 59.9 35.2 40% 30 0.0
08 10:55 Vrbl 6 4.00 Fair with Haze CLR 58.6 33.6 39% 30.01 0.0
08 10:35 Vrbl 6 4.00 Fair with Haze CLR 58.8 34 39% 30.01 0.0
08 10:15 Vrbl 6 5.00 Fair with Haze CLR 57.4 34 41% 30.02 0.0
08 09:55 W 7 4.00 Fair with Haze CLR 55.8 36.3 48% 30.02 0.0
08 09:35 Calm 4.00 Fair with Haze CLR 54 37.9 55% 30.02 0.0
08 09:15 Calm 4.00 Fair with Haze CLR 52 39 61% 30.02 0.0
08 08:55 Calm 4.00 Fair with Haze CLR 47.5 40.6 77% 30.02 0.0
08 08:35 Calm 6.00 Fog/Mist CLR 44.4 40.5 86% 30.02 0.0
08 08:15 Calm 4.00 Fog/Mist CLR 41.9 40.1 93% 30.02 0.0
08 07:55 Calm 1.75 Fog/Mist CLR 38.7 38.7 38.7 32.2 100% 30.01 0.0
08 07:35 Calm 1.50 Fog/Mist CLR 36.9 36.9 100% 30.01 0.0
08 07:15 Calm 1.75 Fog/Mist FEW080 34.5 34.5 100% 30.01 0.0
08 06:55 Calm 1.25 Fog/Mist CLR 33.4 33.4 100% 30 0.0
08 06:35 Calm 1.25 Fog/Mist CLR 32.4 32.4 100% 29.99 0.0
08 06:15 Calm 0.75 Fog/Mist CLR 33.1 33.1 100% 29.99 0.0
08 05:55 Calm 2.50 Fog/Mist CLR 33.8 33.8 100% 29.99 0.0
08 05:35 Calm 2.50 Fog/Mist CLR 33.6 33.6 100% 29.99 0.0
08 05:15 Calm 2.00 Fog/Mist CLR 34.2 34.2 100% 29.98 0.0
08 04:55 Calm 2.00 Fog/Mist CLR 33.8 33.8 100% 29.99 0.0
08 04:35 Calm 2.50 Fog/Mist CLR 34.3 34.3 100% 29.99 0.0
08 04:15 Calm 2.50 Fog/Mist CLR 33.6 33.6 100% 29.98 0.0
08 03:55 Calm 2.00 Fog/Mist CLR 34.3 34.3 100% 29.98 0.0
08 03:35 Calm 2.00 Fog/Mist CLR 35.1 35.1 100% 29.98 0.0
08 03:15 Calm 1.00 Fog/Mist CLR 34.7 34.7 100% 29.98 0.0
08 02:55 Calm 2.00 Fog/Mist CLR 34.5 34.5 100% 29.98 0.0
08 02:35 Calm 2.50 Fog/Mist CLR 35.8 35.8 100% 29.98 0.0
08 02:15 Calm 2.50 Fog/Mist CLR 36.7 36.7 100% 29.98 0.0
08 01:55 Calm 2.50 Fog/Mist CLR 36 36 56.8 35.1 100% 29.98 0.0
08 01:35 Calm 2.50 Fog/Mist CLR 36.5 36.1 99% 29.98 0.0
08 01:15 Calm 2.50 Fog/Mist CLR 36.3 36 99% 29.99 0.0
08 00:55 Calm 2.50 Fog/Mist CLR 36.3 35.6 97% 29.98 0.0
08 00:35 Calm 3.00 Fog/Mist CLR 36.5 35.2 95% 29.98 0.0
08 00:15 Calm 2.50 Fog/Mist CLR 36.7 35.2 95% 29.98 0.0
07 23:55 Calm 2.50 Fog/Mist CLR 38.1 36 92% 29.97 0.0
07 23:35 Calm 3.00 Fog/Mist CLR 38.7 35.2 88% 29.97 0.0
07 23:15 Calm 2.50 Fair with Haze CLR 40.1 35.6 84% 29.96 0.0
07 22:55 Calm 3.00 Fair with Haze CLR 42.3 34.9 75% 29.96 0.0
07 22:15 Calm 4.00 Fair with Haze CLR 43 35.4 75% 29.95 0.0
07 21:55 Calm 5.00 Fair with Haze CLR 45.3 34.7 67% 29.94 0.0
07 21:35 Vrbl 3 6.00 Fair with Haze CLR 46.4 35.1 65% 29.93 0.0
07 21:15 Calm 6.00 Fair with Haze CLR 47.1 35.8 65% 29.92 0.0
07 20:55 Calm 7.00 Fair CLR 54.1 31.3 42% 29.91 0.0
07 20:35 Vrbl 3 5.00 Fair with Haze CLR 54.5 32.5 43% 29.91 0.0
07 20:15 W 3 6.00 Fair with Haze CLR 55.6 31.8 41% 29.9 0.0
07 19:55 Vrbl 5 8.00 A Few Clouds FEW070 57.4 31.3 62.6 57.4 37% 29.89 0.0
07 19:35 Vrbl 7 9.00 Partly Cloudy SCT070 58.1 31.8 37% 29.89 0.0
07 19:15 Vrbl 5 9.00 Mostly Cloudy BKN070 58.8 33.1 38% 29.89 0.0
07 18:55 NW 6 9.00 Partly Cloudy SCT070 58.5 32.7 38% 29.88 0.0
07 18:35 Calm 9.00 Mostly Cloudy BKN070 59.9 33.6 37% 29.88 0.0
07 18:15 Vrbl 6 9.00 Mostly Cloudy BKN065 59.9 34.9 39% 29.87 0.0
07 17:55 W 9 10.00 Partly Cloudy SCT075 61 33.6 36% 29.86 0.0
07 17:35 W 8 9.00 Partly Cloudy SCT070 59.5 34.5 39% 29.86 0.0
07 17:15 W 8 10.00 Partly Cloudy SCT065 61 35.2 38% 29.85 0.0
07 16:55 Vrbl 6 9.00 A Few Clouds FEW070 60.1 35.6 40% 29.85 0.0
07 16:35 W 9 10.00 A Few Clouds FEW060 61.7 36 38% 29.85 0.0
07 16:15 Vrbl 5 10.00 Partly Cloudy SCT065 62.4 36 37% 29.85 0.0
07 15:55 Vrbl 6 10.00 Mostly Cloudy BKN060 BKN070 59.4 36.9 43% 29.86 0.0
07 15:35 Vrbl 6 10.00 Partly Cloudy SCT055 60.1 37.6 43% 29.87 0.0
07 15:15 Vrbl 6 10.00 Mostly Cloudy BKN055 58.6 38.5 47% 29.87 0.0
07 14:55 Vrbl 7 10.00 Mostly Cloudy BKN050 59.9 38.5 45% 29.87 0.0
07 14:35 Vrbl 7 9.00 Partly Cloudy SCT055 60.3 40.1 48% 29.88 0.0
07 14:15 W 8 10.00 Mostly Cloudy BKN046 58.6 39.7 50% 29.88 0.0
07 13:50 Vrbl 3 10.00 Mostly Cloudy BKN046 58.5 41.4 53% 29.89 0.0
07 13:35 Vrbl 7 9.00 Partly Cloudy SCT047 59.7 40.3 49% 29.89 0.0
07 13:15 Calm 10.00 Mostly Cloudy BKN043 BKN050 57.7 41 54% 29.89 0.0
07 12:55 Calm 8.00 Mostly Cloudy BKN042 57 40.1 53% 29.9 0.0
07 12:35 Calm 9.00 Mostly Cloudy BKN040 55.9 40.6 57% 29.91 0.0
07 12:15 Calm 9.00 Overcast OVC042 55.6 39.2 54% 29.92 0.0
07 11:55 Calm 9.00 Partly Cloudy SCT042 55.4 38.8 54% 29.92 0.0
07 11:35 NW 7 10.00 A Few Clouds FEW050 55.2 39.2 55% 29.92 0.0
07 11:15 Vrbl 3 8.00 Mostly Cloudy FEW032 BKN050 54 39.4 58% 29.93 0.0
07 10:55 Calm 9.00 Overcast FEW030 OVC050 53.2 39.6 60% 29.93 0.0
07 10:35 Calm 9.00 Overcast FEW027 OVC055 52.3 41.5 67% 29.93 0.0
07 10:15 Calm 9.00 Overcast OVC055 52 41.9 69% 29.94 0.0
07 09:55 Calm 10.00 Overcast FEW016 OVC050 51.1 44.4 78% 29.95 0.0
07 09:15 Calm 7.00 Overcast FEW012 OVC050 50.2 46.4 87% 29.95 0.0
07 08:55 Calm 6.00 Fog/Mist FEW007 OVC048 49.6 47.1 91% 29.95 0.0
07 08:35 Calm 6.00 Fog/Mist FEW007 OVC048 49.5 47.3 92% 29.95 0.0
07 08:15 Calm 6.00 Fog/Mist SCT006 OVC048 49.3 48.2 96% 29.95 0.0
07 07:55 Calm 5.00 Fog/Mist FEW006 OVC048 48.7 48.6 50.2 47.8 99% 29.95 0.0
07 07:35 Calm 5.00 Fog/Mist SCT005 BKN047 OVC055 48.7 48.7 100% 29.95 0.0
07 07:15 Calm 5.00 Fog/Mist SCT005 OVC055 48.6 48.6 100% 29.94 0.0
07 06:55 Calm 5.00 Fog/Mist FEW005 OVC050 48.4 48.4 100% 29.93 0.0
07 06:35 Calm 5.00 Fog/Mist OVC050 48.2 48.2 100% 29.92 0.0
07 06:15 Calm 6.00 Fog/Mist FEW005 OVC050 48.4 48.4 100% 29.93 0.0
07 05:55 Calm 7.00 Overcast BKN006 OVC047 48.4 48.4 100% 29.93 0.0
07 05:35 Calm 8.00 Overcast SCT003 OVC046 48.4 48.4 100% 29.92 0.0
07 05:15 Calm 8.00 Overcast FEW003 OVC041 48.4 48.4 100% 29.92 0.0
07 04:55 Calm 7.00 Overcast FEW004 OVC036 48.2 48.2 100% 29.91 0.0
07 04:35 Calm 8.00 Overcast FEW017 OVC034 48.4 48.4 100% 29.93 0.0
07 04:15 Calm 7.00 Overcast OVC031 48.4 48.4 100% 29.93 0.0
07 03:50 Calm 6.00 Fog/Mist OVC029 48.4 48.4 100% 29.92 0.0
07 03:35 Calm 6.00 Fog/Mist OVC028 48 48 100% 29.93 0.0
07 03:15 Calm 3.00 Fog/Mist OVC024 48 47.8 99% 29.92 0.0
07 02:55 Calm 3.00 Fog/Mist OVC023 48.9 47.7 95% 29.92 0.0
07 02:35 Calm 5.00 Fog/Mist FEW006 OVC022 49.1 47.7 95% 29.92 0.0
07 02:15 Vrbl 3 2.50 Fog/Mist BKN006 OVC016 49.5 48.9 98% 29.92 0.0
07 01:55 Calm 0.50 Fog SCT006 OVC022 50.7 50.7 53.4 50.7 100% 29.93 0.0 0.01 0.06
07 01:35 Calm 2.00 Fog/Mist FEW007 BKN022 OVC029 50.7 50.7 100% 29.93 0.0
07 01:15 Calm 1.50 Fog/Mist FEW007 BKN024 OVC032 50.9 50.9 100% 29.93 0.0
07 00:55 Calm 0.75 Light Drizzle Fog/Mist SCT005 OVC027 51.1 51.1 100% 29.93 0.0 0.02
07 00:35 Vrbl 3 0.75 Fog/Mist SCT005 BKN025 OVC031 51.3 51.1 99% 29.93 0.0 0.01
07 00:15 W 3 0.50 Fog OVC024 51.6 51.6 100% 29.93 0.0 0.01
06 23:55 Calm 1.00 Fog/Mist SCT006 OVC026 52 52 100% 29.91 0.0
06 23:35 Calm 1.00 Fog/Mist SCT005 SCT009 OVC026 52.2 52.2 100% 29.92 0.0
06 23:15 Calm 1.00 Light Rain Fog/Mist OVC026 52.3 52.2 99% 29.92 0.0
06 22:55 W 5 3.00 Fog/Mist FEW005 OVC025 52.7 52.7 100% 29.94 0.0 0.01 0.03
06 22:35 Calm 1.50 Fog/Mist FEW014 OVC023 52.5 52.5 100% 29.91 0.0
06 22:15 W 3 6.00 Light Rain Fog/Mist BKN017 OVC025 52.9 52.9 100% 29.92 0.0
06 21:55 Calm 6.00 Fog/Mist FEW006 OVC020 52.9 52.9 100% 29.91 0.0 0.01
06 21:35 Calm 6.00 Fog/Mist SCT005 OVC022 52.9 52.9 100% 29.9 0.0 0.01
06 21:15 Calm 4.00 Light Rain Fog/Mist SCT004 BKN009 BKN018 OVC023 52.9 52.9 100% 29.9 0.0
06 20:55 Calm 1.50 Light Rain Fog/Mist FEW004 SCT009 BKN025 OVC031 53.1 53.1 100% 29.88 0.0 0.01
06 20:35 Calm 4.00 Light Rain Fog/Mist BKN026 BKN031 OVC043 53.2 53.1 99% 29.89 0.0
06 20:15 Calm 4.00 Fog/Mist BKN028 OVC041 53.2 52.9 99% 29.89 0.0
06 19:55 Calm 6.00 Fog/Mist FEW007 BKN030 OVC042 53.4 53.2 59.5 53.4 99% 29.89 0.0 0.05
06 19:35 Calm 6.00 Fog/Mist FEW009 SCT031 OVC042 53.8 53.4 99% 29.9 0.0
06 19:15 Calm 6.00 Fog/Mist BKN008 OVC012 53.8 53.2 98% 29.89 0.0
06 18:55 Calm 6.00 Fog/Mist BKN007 OVC011 54 53.4 98% 29.89 0.0
06 18:35 W 3 4.00 Fog/Mist BKN007 BKN011 OVC026 53.8 53.2 98% 29.9 0.0
06 18:15 Calm 5.00 Fog/Mist FEW008 OVC025 53.8 53.1 97% 29.88 0.0
06 17:55 Calm 2.00 Light Rain Fog/Mist FEW005 SCT015 SCT021 OVC032 54.1 53.2 97% 29.88 0.0 0.02
06 17:35 W 5 1.75 Light Rain Fog/Mist FEW004 BKN015 OVC022 54.3 53.4 97% 29.88 0.0
06 17:15 Vrbl 6 5.00 Fog/Mist BKN016 OVC030 54.7 53.2 95% 29.89 0.0
06 16:55 W 6 1.25 Fog/Mist FEW005 SCT011 BKN022 OVC030 55 54.1 97% 29.87 0.0 0.01 0.03
06 16:35 Vrbl 3 2.50 Light Rain Fog/Mist SCT005 BKN011 BKN021 OVC027 55.2 54.3 97% 29.87 0.0
06 16:15 Vrbl 6 6.00 Fog/Mist FEW006 BKN017 BKN023 OVC028 55.8 54.1 94% 29.86 0.0
06 15:55 Vrbl 3 2.00 Light Rain Fog/Mist BKN005 OVC013 55.4 54.3 96% 29.85 0.0 0.02
06 15:35 Vrbl 3 1.00 Light Rain Fog/Mist OVC005 55.4 54.3 96% 29.86 0.0 0.01
06 15:15 Calm 3.00 Light Rain Fog/Mist OVC007 56.8 55.6 96% 29.85 0.0 0.01
06 14:55 Vrbl 3 8.00 Overcast OVC008 57.6 56.1 95% 29.84 0.0
06 14:35 Vrbl 3 6.00 Fog/Mist OVC007 57.9 56.5 95% 29.83 0.0
06 14:15 Vrbl 6 7.00 Overcast BKN005 OVC011 59 58.1 97% 29.83 0.0
06 13:55 W 5 1.00 Light Rain Fog/Mist BKN004 OVC011 60.4 60.1 61.2 58.5 99% 29.83 0.0 0.02 0.06
06 13:35 Calm 1.00 Light Rain Fog/Mist BKN005 BKN011 OVC025 60.4 59.9 98% 29.83 0.0 0.01
06 13:15 Vrbl 3 1.50 Fog/Mist SCT006 BKN012 OVC024 60.3 59.7 98% 29.82 0.0 0.01
06 12:55 Vrbl 5 2.50 Light Rain Fog/Mist BKN005 BKN012 OVC020 60.4 59.7 97% 29.83 0.0 0.01
06 12:35 Vrbl 5 2.00 Light Rain Fog/Mist BKN005 OVC010 60.8 59.9 97% 29.82 0.0
06 12:15 Vrbl 3 6.00 Fog/Mist OVC009 61.2 59.7 95% 29.82 0.0
06 11:55 Vrbl 7 8.00 Overcast BKN006 OVC011 60.8 59.7 96% 29.82 0.0 0.01
Date Time (edt) Wind (mph) Vis. (mi.) Weather Sky Cond. Air Dwpt Max. Min. Relative Humidity Wind Chill (°F) Heat Index (°F) altimeter (in) sea level (mb) 1 hr 3 hr 6 hr
6 hour
Temperature (ºF) Pressure Precipitation (in)